This is the latest recevied weather packets stored in our database for station/object WZ8H. If no packets are shown the sender has not sent any weather packets the latest 1 day(s).
| Time | Temp. | Humidity | Pressure | Rain* | Wind** | Luminosity | Snow |
|---|---|---|---|---|---|---|---|
| 1778073557 | 9.44° C | 86% | 1010 hPa | 0 mm | - | 225 W/m² | - |
| 1778072039 | 8.89° C | 91% | 1009.5 hPa | 0 mm | - | 153 W/m² | - |
| 1778069541 | 7.78° C | 92% | 1008.9 hPa | 0 mm | - | 105 W/m² | - |
| 1778068284 | 7.22° C | 92% | 1009 hPa | 0.25 mm | - | 33 W/m² | - |
| 1778067957 | 7.22° C | 92% | 1009 hPa | 0.25 mm | - | 53 W/m² | - |
| 1778067657 | 7.22° C | 92% | 1009.1 hPa | 0.25 mm | - | 32 W/m² | - |
| 1778067343 | 7.22° C | 92% | 1009 hPa | 0.25 mm | - | 39 W/m² | - |
| 1778065474 | 7.22° C | 93% | 1008.2 hPa | 0.25 mm | - | 14 W/m² | - |
| 1778065146 | 7.22° C | 93% | 1008.1 hPa | 0.25 mm | - | 12 W/m² | - |
| 1778064845 | 7.22° C | 93% | 1008.1 hPa | 0 mm | - | 7 W/m² | - |
| 1778064223 | 7.22° C | 93% | 1007.9 hPa | 0 mm | - | 7 W/m² | - |
| 1778063624 | 7.22° C | 93% | 1007.9 hPa | 0 mm | - | 0 W/m² | - |
| 1778063296 | 7.22° C | 93% | 1007.9 hPa | 0 mm | - | 0 W/m² | - |
| 1778062994 | 7.22° C | 93% | 1007.8 hPa | 0 mm | - | 0 W/m² | - |
| 1778062668 | 7.22° C | 93% | 1007.8 hPa | 0 mm | - | 0 W/m² | - |
| 1778062339 | 7.22° C | 93% | 1007.7 hPa | 0 mm | - | 0 W/m² | - |
| 1778062038 | 7.22° C | 93% | 1007.7 hPa | 0 mm | - | 0 W/m² | - |
| 1778061713 | 6.67° C | 93% | 1007.5 hPa | 0 mm | - | 0 W/m² | - |
| 1778061397 | 7.22° C | 93% | 1007.6 hPa | 0 mm | - | 0 W/m² | - |
| 1778060788 | 7.22° C | 93% | 1008 hPa | 0.25 mm | - | 0 W/m² | - |
| 1778060495 | 7.22° C | 93% | 1008.1 hPa | 0.25 mm | - | 0 W/m² | - |
| 1778059533 | 7.22° C | 93% | 1007.9 hPa | 0.25 mm | - | 0 W/m² | - |
| 1778059236 | 7.22° C | 93% | 1008.6 hPa | 0.25 mm | - | 0 W/m² | - |
| 1778058577 | 6.67° C | 93% | 1007.9 hPa | 0.25 mm | - | 0 W/m² | - |
| 1778058275 | 7.22° C | 93% | 1008 hPa | 0.25 mm | - | 0 W/m² | - |
* Rain latest hour (hover to see other rain measurements)
** Current wind speed in m/s (hover to see current wind gust speed)